Latest Coastal Weather Observations for Albany Airport

IDW60701

Issued at 2:35 pm WST Tuesday 2 September 2014 (issued every 10 minutes, with the page automatically refreshed every 10 minutes)

About coastal observations | Map of coastal stations | Coastal observations for WA | Marine services | Other Formats
Station Details ID: 009999 Name: ALBANY AIRPORT Lat: -34.94 Lon: 117.82 Height: 68.4 m
Data from the previous 72 hours. | See also: Recent months at Albany Airport
Date/Time
WST
Temp

°C
Wind Pressure Rain
since 9am
mm
Weather Cloud Vis
km
Sea
Height
m
Swell
Dir
 
Speed
knots
Gust
knots
hPa Trend Height
m
Period
s
Dir
02/02:30pm 16.6 W 5 7 1014.8 - 0.0 - Cloudy 10 - - - -
02/02:00pm 16.8 W 5 7 1014.6 - 0.0 - Cloudy 10 - - - -
02/01:30pm 16.6 WSW 6 8 1014.8 - 0.0 - Cloudy 10 - - - -
02/01:00pm 16.5 WSW 5 6 1014.9 - 0.0 Showers Partly cloudy 10 - - - -
02/12:30pm 16.2 NNW 7 9 1015.2 - 0.0 - Cloudy 10 - - - -
02/12:00pm 15.8 NNW 7 9 1015.6 F 0.0 Distant precip. Mostly cloudy 30 - - - -
02/11:30am 15.7 NNW 10 15 1016.4 - 0.0 - Partly cloudy 10 - - - -
02/11:00am 14.8 WNW 9 11 1017.1 - 0.0 - Partly cloudy 10 - - - -
02/10:30am 14.2 NNW 8 12 1017.1 - 0.0 - Partly cloudy 10 - - - -
02/10:00am 12.1 N 6 8 1017.1 - 0.0 - Cloudy 10 - - - -
02/09:30am 11.8 N 4 5 1017.5 - 0.0 - Cloudy 10 - - - -
02/09:00am 10.7 WSW 4 5 1018.0 F 0.0 Fine Mostly cloudy 30 - - - -
02/08:30am 9.8 WNW 3 4 1017.8 - 0.0 - Cloudy 10 - - - -
02/08:00am 9.7 SSW 1 5 1017.5 - 0.0 - Cloudy 10 - - - -
02/07:30am 8.6 NE 4 5 1016.9 - 0.0 - Partly cloudy 10 - - - -
02/07:00am 8.5 CALM 0 1 1017.5 - 0.0 - Cloudy 10 - - - -
02/06:30am 8.4 ESE 3 4 1017.4 - 0.0 - Partly cloudy 10 - - - -
02/06:00am 8.3 ENE 5 6 1017.7 F 0.0 Fine Mostly cloudy 30 - - - -
02/05:30am 8.5 ENE 5 6 1017.8 - 0.0 - Partly cloudy 10 - - - -
02/05:00am 8.3 E 3 4 1018.2 - 0.0 - - 10 - - - -
02/04:30am 8.4 NE 5 6 1018.5 - 0.0 - - 10 - - - -
02/04:00am 8.9 NE 5 6 1018.7 - 0.0 - Partly cloudy 10 - - - -
02/03:30am 9.1 NE 7 9 1019.1 - 0.0 - Partly cloudy 10 - - - -
02/03:00am 8.9 NE 7 9 1019.7 - 0.0 - Cloudy 10 - - - -
02/02:30am 8.9 ENE 7 9 1019.8 - 0.0 - - 10 - - - -
02/02:00am 8.4 NE 7 8 1020.6 - 0.0 - - 10 - - - -
02/01:30am 8.9 NE 6 8 1020.7 - 0.0 - - 10 - - - -
02/01:00am 9.7 NE 7 9 1020.8 - 0.0 - - 10 - - - -
02/12:30am 9.8 NE 7 10 1021.0 - 0.0 - - 10 - - - -
02/12:00am 9.8 NE 8 11 1021.8 - 0.0 - - 10 - - - -
 
Date/Time
WST
Temp

°C
Wind Pressure Rain
since 9am
mm
Weather Cloud Vis
km
Sea
Height
m
Swell
Dir
 
Speed
knots
Gust
knots
hPa Trend Height
m
Period
s
Dir
01/11:30pm 9.9 NE 9 11 1022.1 - 0.0 - - 10 - - - -
01/11:00pm 9.2 NE 7 10 1022.1 - 0.0 - - 10 - - - -
01/10:30pm 8.2 NE 6 7 1022.8 - 0.0 - - 10 - - - -
01/10:00pm 8.3 NE 5 7 1023.0 - 0.0 - - 10 - - - -
01/09:30pm 8.6 NE 6 7 1023.0 - 0.0 - - 10 - - - -
01/09:00pm 8.8 NE 6 7 1023.3 - 0.0 - - 10 - - - -
01/08:30pm 8.1 ENE 7 8 1023.1 - 0.0 - - 10 - - - -
01/08:00pm 8.9 NE 3 4 1022.9 - 0.0 - - 10 - - - -
01/07:30pm 9.4 NNE 3 4 1023.2 - 0.0 - - 10 - - - -
01/07:00pm 10.7 NE 1 3 1022.8 - 0.0 - Partly cloudy 10 - - - -
01/06:30pm 11.4 NE 4 5 1022.8 - 0.0 - Partly cloudy 10 - - - -
01/06:00pm 12.6 NE 3 4 1022.9 - 0.0 - Cloudy 10 - - - -
01/05:30pm 14.0 NE 4 5 1022.5 - 0.0 - Cloudy 10 - - - -
01/05:00pm 14.4 NE 4 6 1022.3 - 0.0 - Mostly clear 10 - - - -
01/04:30pm 13.8 NE 6 9 1022.1 - 0.0 - Mostly clear 10 - - - -
01/04:00pm 15.3 NNE 7 10 1022.0 - 0.0 - Mostly clear 10 - - - -
01/03:30pm 15.6 N 5 7 1021.9 - 0.0 - Mostly clear 10 - - - -
01/03:00pm 15.7 N 7 11 1022.6 F 0.0 Fine Partly cloudy 30 - - - -
01/02:30pm 15.4 N 7 11 1022.5 - 0.0 - Mostly clear 10 - - - -
01/02:00pm 14.8 NNE 5 8 1022.7 - 0.0 - Mostly clear 10 - - - -
01/01:30pm 15.1 N 6 10 1022.9 - 0.0 - Mostly clear 10 - - - -
01/01:00pm 15.3 N 6 10 1023.4 - 0.0 - Mostly clear 10 - - - -
01/12:30pm 14.6 N 8 14 1023.9 - 0.0 - Mostly clear 10 - - - -
01/12:00pm 13.6 NNE 11 13 1024.5 F 0.0 Fine Mostly cloudy 30 - - - -
01/11:30am 13.1 N 9 11 1024.6 - 0.0 - Mostly clear 10 - - - -
01/11:00am 12.8 NNE 7 11 1024.7 - 0.0 - Mostly clear 10 - - - -
01/10:30am 12.7 N 5 7 1024.8 - 0.0 - Mostly clear 10 - - - -
01/10:00am 12.4 N 5 8 1024.7 - 0.0 - Mostly clear 10 - - - -
01/09:30am 11.9 NNW 5 7 1025.0 - 0.0 - Mostly clear 10 - - - -
01/09:00am 10.7 NNW 5 7 1025.2 R 2.4 Fine Mostly clear 30 - - - -
01/08:30am 9.0 WNW 7 8 1024.8 - 2.4 - Mostly clear 10 - - - -
01/08:00am 6.8 NW 5 6 1024.9 - 2.2 - Mostly clear 10 - - - -
01/07:30am 4.4 WNW 4 5 1024.5 - 2.2 - Mostly clear 10 - - - -
01/07:00am 3.4 CALM 0 3 1024.3 - 2.2 - Mostly clear 10 - - - -
01/06:30am 2.3 WSW 4 5 1023.9 - 2.2 - Mostly clear 10 - - - -
01/06:00am 2.7 CALM 0 0 1023.5 S 2.2 Shallow fog Mostly clear 20 - - - -
01/05:30am 3.3 NNW 4 5 1023.2 - 2.2 - - 10 - - - -
01/05:00am 3.5 NNW 4 6 1023.2 - 2.2 - - 10 - - - -
01/04:30am 4.7 CALM 0 4 1023.0 - 2.2 - Cloudy 10 - - - -
01/04:00am 4.9 NW 6 7 1022.8 - 2.2 - Partly cloudy 10 - - - -
01/03:30am 4.9 NW 4 5 1022.7 - 2.2 - - 10 - - - -
01/03:00am 5.6 NW 4 5 1022.9 - 2.2 - Cloudy 10 - - - -
01/02:30am 6.4 WNW 3 4 1022.8 - 2.2 - Partly cloudy 10 - - - -
01/02:00am 7.4 NNE 1 4 1022.9 - 2.2 - Partly cloudy 10 - - - -
01/01:30am 7.8 W 3 5 1022.8 - 2.2 - Partly cloudy 10 - - - -
01/01:00am 7.5 NW 6 8 1022.8 - 2.2 - Partly cloudy 10 - - - -
01/12:30am 7.1 NW 6 7 1022.8 - 2.2 - Partly cloudy 10 - - - -
01/12:00am 7.2 NNW 2 6 1022.9 - 2.2 - Cloudy 10 - - - -
 
Date/Time
WST
Temp

°C
Wind Pressure Rain
since 9am
mm
Weather Cloud Vis
km
Sea
Height
m
Swell
Dir
 
Speed
knots
Gust
knots
hPa Trend Height
m
Period
s
Dir
31/11:30pm 7.0 N 4 5 1022.8 - 2.0 - Partly cloudy 10 - - - -
31/11:00pm 6.3 NNW 2 5 1023.0 - 2.0 - Cloudy 10 - - - -
31/10:46pm 6.2 NW 5 7 1023.0 - 2.0 - Partly cloudy 10 - - - -
31/10:30pm 6.0 NW 5 7 1022.9 - 2.0 - Partly cloudy 5 - - - -
31/10:28pm 5.9 NW 5 7 1022.9 - 2.0 - - 6 - - - -
31/10:23pm 6.3 NW 3 5 1022.8 - 2.0 - - 10 - - - -
31/10:01pm 6.0 N 4 5 1022.8 - 2.0 - - 5 - - - -
31/10:00pm 6.0 N 4 5 1022.8 - 2.0 - - 7 - - - -
31/09:30pm 7.3 N 4 5 1022.6 - 2.0 - Partly cloudy 10 - - - -
31/09:00pm 8.2 NW 3 5 1022.6 - 2.0 - Cloudy 10 - - - -
31/08:30pm 7.3 NW 2 4 1022.2 - 2.0 - Partly cloudy 10 - - - -
31/08:00pm 7.2 NW 3 5 1022.1 - 2.0 - Partly cloudy 10 - - - -
31/07:30pm 9.0 S 3 4 1021.9 - 2.0 - Partly cloudy 10 - - - -
31/07:00pm 9.4 SSE 4 5 1021.5 - 2.0 - Partly cloudy 10 - - - -
31/06:30pm 9.7 S 5 7 1021.5 - 2.0 - - 10 - - - -
31/06:00pm 10.8 S 7 11 1021.3 - 2.0 - Cloudy 10 - - - -
31/05:30pm 10.8 S 5 7 1020.4 - 2.0 - Partly cloudy 10 - - - -
31/05:00pm 12.2 S 9 14 1020.0 - 2.0 - Mostly clear 10 - - - -
31/04:30pm 12.3 S 8 13 1019.7 - 2.0 - Mostly clear 10 - - - -
31/04:00pm 12.2 SW 6 9 1019.4 - 2.0 - Mostly clear 10 - - - -
31/03:30pm 13.8 S 10 14 1019.1 - 2.0 - Mostly clear 10 - - - -
31/03:00pm 13.3 SSW 11 17 1019.0 R 2.0 Fine Mostly cloudy 25 - - - -
31/02:30pm 14.0 SW 14 22 1018.2 - 2.0 - Mostly clear 10 - - - -
31/02:00pm 13.5 SW 13 19 1018.1 - 2.0 - Mostly clear 10 - - - -
31/01:30pm 14.1 SW 13 18 1017.8 - 2.0 - Mostly clear 10 - - - -
31/01:00pm 13.6 SW 13 21 1017.8 - 2.0 - Mostly clear 10 - - - -
31/12:30pm 13.9 W 8 14 1018.0 - 2.0 - Mostly clear 10 - - - -
31/12:00pm 11.9 W 9 13 1018.6 R 2.0 Recent precip. Mostly cloudy 25 - - - -
31/11:30am 10.7 W 9 14 1018.7 - 1.6 - Mostly clear 10 - - - -
31/11:00am 10.8 W 8 11 1018.4 - 1.2 - Mostly clear 10 - - - -
31/10:30am 12.4 W 14 23 1018.5 - 0.0 Showers Mostly clear 8 - - - -
31/10:00am 13.1 WNW 9 13 1018.4 - 0.0 - Mostly clear 10 - - - -
31/09:30am 13.5 WSW 13 16 1018.7 - 0.0 - Mostly clear 10 - - - -
31/09:00am 11.8 W 11 15 1018.6 R 0.2 Recent precip. Partly cloudy 30 - - - -
31/08:30am 11.6 WNW 13 16 1018.1 - 0.2 Showers Mostly clear 10 - - - -
31/08:00am 10.5 WNW 9 12 1018.0 - 0.2 - Mostly clear 10 - - - -
31/07:30am 9.2 WNW 11 14 1017.8 - 0.2 - Mostly clear 10 - - - -
31/07:00am 7.7 NW 9 13 1017.6 - 0.2 - Mostly clear 10 - - - -
31/06:30am 7.1 NW 9 11 1017.3 - 0.2 - Mostly clear 10 - - - -
31/06:00am 7.2 NW 8 11 1017.3 R 0.2 Fine Partly cloudy 25 - - - -
31/05:30am 7.2 WNW 8 10 1016.9 - 0.2 - - 10 - - - -
31/05:00am 7.2 NW 8 9 1016.8 - 0.2 - - 10 - - - -
31/04:30am 8.1 WNW 9 10 1016.7 - 0.2 - Partly cloudy 10 - - - -
31/04:00am 8.8 NW 8 10 1016.9 - 0.2 - Partly cloudy 10 - - - -
31/03:30am 8.7 WNW 7 9 1016.7 - 0.2 - Partly cloudy 10 - - - -
31/03:00am 8.5 NW 7 8 1016.8 - 0.2 - Cloudy 10 - - - -
31/02:30am 8.5 WNW 8 11 1016.4 - 0.2 - Partly cloudy 10 - - - -
31/02:00am 7.6 WNW 6 6 1016.5 - 0.2 - - 10 - - - -
31/01:30am 7.9 NW 6 7 1016.6 - 0.2 - Partly cloudy 10 - - - -
31/01:00am 7.4 NW 6 7 1016.6 - 0.2 - Partly cloudy 10 - - - -
31/12:30am 7.7 NW 7 8 1016.5 - 0.2 - - 10 - - - -
31/12:00am 7.3 NW 7 9 1017.0 - 0.2 - - 10 - - - -
 
Date/Time
WST
Temp

°C
Wind Pressure Rain
since 9am
mm
Weather Cloud Vis
km
Sea
Height
m
Swell
Dir
 
Speed
knots
Gust
knots
hPa Trend Height
m
Period
s
Dir
30/11:30pm 7.2 NW 7 8 1016.6 - 0.2 - Partly cloudy 10 - - - -
30/11:00pm 7.4 NW 6 7 1016.8 - 0.2 - Partly cloudy 10 - - - -
30/10:30pm 7.4 NW 7 7 1017.1 - 0.2 - - 10 - - - -
30/10:00pm 8.5 WNW 6 7 1017.4 - 0.2 - Partly cloudy 10 - - - -
30/09:30pm 9.1 WNW 6 7 1017.1 - 0.2 - Partly cloudy 10 - - - -
30/09:00pm 8.9 WNW 6 6 1017.4 - 0.2 - Cloudy 10 - - - -
30/08:30pm 9.2 NW 5 5 1017.1 - 0.2 - - 10 - - - -
30/08:00pm 9.7 NW 6 6 1016.9 - 0.2 - - 10 - - - -
30/07:30pm 10.4 WNW 5 6 1017.0 - 0.2 - Partly cloudy 10 - - - -
30/07:00pm 11.2 WNW 5 5 1016.7 - 0.2 - Partly cloudy 10 - - - -
30/06:30pm 11.1 NW 5 5 1016.6 - 0.2 - Partly cloudy 10 - - - -
30/06:00pm 11.4 WNW 5 5 1016.5 - 0.2 - Cloudy 10 - - - -
30/05:30pm 12.3 WSW 5 7 1016.3 - 0.2 - Partly cloudy 10 - - - -
30/05:00pm 12.7 WSW 9 15 1016.1 - 0.2 - Mostly clear 10 - - - -
30/04:30pm 13.4 SW 7 11 1015.6 - 0.2 - Mostly clear 10 - - - -
30/04:00pm 13.3 SW 8 12 1015.4 - 0.2 - Mostly clear 10 - - - -
30/03:30pm 14.0 SW 11 16 1015.1 - 0.2 - Mostly clear 10 - - - -
30/03:00pm 13.6 W 5 6 1015.0 R 0.2 Fine Mostly cloudy 30 - - - -

Other Formats:

Comma delimited format used in spreadsheet applications
http://www.bom.gov.au/fwo/IDW60701/IDW60701.94802.axf

JavaScript Object Notation format (JSON) in row-major order
http://www.bom.gov.au/fwo/IDW60701/IDW60701.94802.json